sensor_id;sensor_type;location;lat;lon;timestamp;P1;durP1;ratioP1;P2;durP2;ratioP2
77105;SDS011;66057;54.718;18.426;2023-03-01T00:02:25;6.20;;;3.72;;
77105;SDS011;66057;54.718;18.426;2023-03-01T00:04:51;8.77;;;3.08;;
77105;SDS011;66057;54.718;18.426;2023-03-01T00:07:17;11.52;;;3.28;;
77105;SDS011;66057;54.718;18.426;2023-03-01T00:09:43;9.95;;;4.10;;
77105;SDS011;66057;54.718;18.426;2023-03-01T00:12:11;7.85;;;4.28;;
77105;SDS011;66057;54.718;18.426;2023-03-01T00:14:37;8.27;;;3.47;;
77105;SDS011;66057;54.718;18.426;2023-03-01T00:17:03;6.10;;;3.10;;
77105;SDS011;66057;54.718;18.426;2023-03-01T00:19:29;10.77;;;4.82;;
77105;SDS011;66057;54.718;18.426;2023-03-01T00:21:54;13.00;;;4.53;;
77105;SDS011;66057;54.718;18.426;2023-03-01T00:24:21;5.03;;;3.42;;
77105;SDS011;66057;54.718;18.426;2023-03-01T00:26:46;7.90;;;3.83;;
77105;SDS011;66057;54.718;18.426;2023-03-01T00:29:12;11.98;;;5.32;;
77105;SDS011;66057;54.718;18.426;2023-03-01T00:31:38;12.00;;;4.35;;
77105;SDS011;66057;54.718;18.426;2023-03-01T00:34:04;10.68;;;5.70;;
77105;SDS011;66057;54.718;18.426;2023-03-01T00:36:37;8.65;;;5.00;;
77105;SDS011;66057;54.718;18.426;2023-03-01T00:39:04;11.10;;;4.20;;
77105;SDS011;66057;54.718;18.426;2023-03-01T00:41:33;10.13;;;5.22;;
77105;SDS011;66057;54.718;18.426;2023-03-01T00:44:00;6.38;;;3.75;;
77105;SDS011;66057;54.718;18.426;2023-03-01T00:46:26;9.93;;;5.30;;
77105;SDS011;66057;54.718;18.426;2023-03-01T00:48:55;11.45;;;4.22;;
77105;SDS011;66057;54.718;18.426;2023-03-01T00:51:23;4.65;;;3.80;;
77105;SDS011;66057;54.718;18.426;2023-03-01T00:53:57;4.60;;;3.67;;
77105;SDS011;66057;54.718;18.426;2023-03-01T00:56:25;8.35;;;3.88;;
77105;SDS011;66057;54.718;18.426;2023-03-01T01:01:19;11.05;;;5.13;;
77105;SDS011;66057;54.718;18.426;2023-03-01T01:03:48;5.97;;;4.20;;
77105;SDS011;66057;54.718;18.426;2023-03-01T01:06:25;7.07;;;4.22;;
77105;SDS011;66057;54.718;18.426;2023-03-01T01:09:13;5.65;;;3.83;;
77105;SDS011;66057;54.718;18.426;2023-03-01T01:11:48;5.90;;;3.67;;
77105;SDS011;66057;54.718;18.426;2023-03-01T01:14:16;5.55;;;3.58;;
77105;SDS011;66057;54.718;18.426;2023-03-01T01:19:10;7.32;;;4.60;;
77105;SDS011;66057;54.718;18.426;2023-03-01T01:21:37;10.48;;;5.10;;
77105;SDS011;66057;54.718;18.426;2023-03-01T01:24:04;9.38;;;4.60;;
77105;SDS011;66057;54.718;18.426;2023-03-01T01:26:31;5.88;;;3.78;;
77105;SDS011;66057;54.718;18.426;2023-03-01T01:29:04;8.95;;;5.30;;
77105;SDS011;66057;54.718;18.426;2023-03-01T01:31:34;5.28;;;3.67;;
77105;SDS011;66057;54.718;18.426;2023-03-01T01:34:02;7.68;;;3.28;;
77105;SDS011;66057;54.718;18.426;2023-03-01T01:36:32;9.77;;;5.28;;
77105;SDS011;66057;54.718;18.426;2023-03-01T01:38:59;7.05;;;4.43;;
77105;SDS011;66057;54.718;18.426;2023-03-01T01:41:30;7.88;;;4.50;;
77105;SDS011;66057;54.718;18.426;2023-03-01T01:47:03;9.90;;;4.32;;
77105;SDS011;66057;54.718;18.426;2023-03-01T01:49:34;17.83;;;5.38;;
77105;SDS011;66057;54.718;18.426;2023-03-01T01:52:05;11.23;;;4.10;;
77105;SDS011;66057;54.718;18.426;2023-03-01T01:54:53;12.55;;;5.57;;
77105;SDS011;66057;54.718;18.426;2023-03-01T01:57:30;8.75;;;4.65;;
77105;SDS011;66057;54.718;18.426;2023-03-01T02:00:04;12.35;;;5.88;;
77105;SDS011;66057;54.718;18.426;2023-03-01T02:02:33;9.50;;;5.47;;
77105;SDS011;66057;54.718;18.426;2023-03-01T02:05:06;14.70;;;7.30;;
77105;SDS011;66057;54.718;18.426;2023-03-01T02:07:39;8.60;;;6.03;;
77105;SDS011;66057;54.718;18.426;2023-03-01T02:10:06;15.82;;;7.38;;
77105;SDS011;66057;54.718;18.426;2023-03-01T02:12:33;12.18;;;7.00;;
77105;SDS011;66057;54.718;18.426;2023-03-01T02:15:04;15.25;;;7.53;;
77105;SDS011;66057;54.718;18.426;2023-03-01T02:17:31;13.50;;;8.07;;
77105;SDS011;66057;54.718;18.426;2023-03-01T02:20:04;14.68;;;7.38;;
77105;SDS011;66057;54.718;18.426;2023-03-01T02:22:34;8.82;;;6.15;;
77105;SDS011;66057;54.718;18.426;2023-03-01T02:25:06;15.48;;;9.25;;
77105;SDS011;66057;54.718;18.426;2023-03-01T02:27:51;22.50;;;8.80;;
77105;SDS011;66057;54.718;18.426;2023-03-01T02:30:39;13.30;;;8.25;;
77105;SDS011;66057;54.718;18.426;2023-03-01T02:33:26;18.30;;;9.80;;
77105;SDS011;66057;54.718;18.426;2023-03-01T02:36:03;20.92;;;10.50;;
77105;SDS011;66057;54.718;18.426;2023-03-01T02:38:33;16.70;;;8.88;;
77105;SDS011;66057;54.718;18.426;2023-03-01T02:40:59;25.98;;;9.88;;
77105;SDS011;66057;54.718;18.426;2023-03-01T02:43:29;16.48;;;10.07;;
77105;SDS011;66057;54.718;18.426;2023-03-01T02:46:02;17.83;;;10.27;;
77105;SDS011;66057;54.718;18.426;2023-03-01T02:48:40;25.88;;;11.63;;
77105;SDS011;66057;54.718;18.426;2023-03-01T02:56:25;18.25;;;10.80;;
77105;SDS011;66057;54.718;18.426;2023-03-01T02:58:52;23.52;;;11.43;;
77105;SDS011;66057;54.718;18.426;2023-03-01T03:01:18;22.23;;;8.90;;
77105;SDS011;66057;54.718;18.426;2023-03-01T03:03:44;22.42;;;10.63;;
77105;SDS011;66057;54.718;18.426;2023-03-01T03:06:10;19.13;;;10.77;;
77105;SDS011;66057;54.718;18.426;2023-03-01T03:08:37;18.02;;;10.40;;
77105;SDS011;66057;54.718;18.426;2023-03-01T03:11:04;20.60;;;9.85;;
77105;SDS011;66057;54.718;18.426;2023-03-01T03:13:30;29.00;;;9.23;;
77105;SDS011;66057;54.718;18.426;2023-03-01T03:18:23;20.00;;;10.43;;
77105;SDS011;66057;54.718;18.426;2023-03-01T03:20:53;16.55;;;9.07;;
77105;SDS011;66057;54.718;18.426;2023-03-01T03:23:20;16.33;;;8.48;;
77105;SDS011;66057;54.718;18.426;2023-03-01T03:25:48;15.32;;;8.55;;
77105;SDS011;66057;54.718;18.426;2023-03-01T03:28:15;25.52;;;8.60;;
77105;SDS011;66057;54.718;18.426;2023-03-01T03:30:41;28.90;;;11.60;;
77105;SDS011;66057;54.718;18.426;2023-03-01T03:33:09;27.67;;;11.05;;
77105;SDS011;66057;54.718;18.426;2023-03-01T03:35:41;22.80;;;10.30;;
77105;SDS011;66057;54.718;18.426;2023-03-01T03:38:12;19.75;;;8.93;;
77105;SDS011;66057;54.718;18.426;2023-03-01T03:40:44;26.25;;;9.70;;
77105;SDS011;66057;54.718;18.426;2023-03-01T03:43:13;26.98;;;10.63;;
77105;SDS011;66057;54.718;18.426;2023-03-01T03:45:44;27.60;;;9.65;;
77105;SDS011;66057;54.718;18.426;2023-03-01T03:48:11;23.17;;;11.18;;
77105;SDS011;66057;54.718;18.426;2023-03-01T03:50:38;34.30;;;13.13;;
77105;SDS011;66057;54.718;18.426;2023-03-01T03:53:06;15.15;;;8.05;;
77105;SDS011;66057;54.718;18.426;2023-03-01T03:55:38;22.05;;;9.80;;
77105;SDS011;66057;54.718;18.426;2023-03-01T03:58:08;23.52;;;11.13;;
77105;SDS011;66057;54.718;18.426;2023-03-01T04:00:36;27.33;;;12.65;;
77105;SDS011;66057;54.718;18.426;2023-03-01T04:03:09;31.08;;;13.13;;
77105;SDS011;66057;54.718;18.426;2023-03-01T04:05:37;22.85;;;9.98;;
77105;SDS011;66057;54.718;18.426;2023-03-01T04:08:04;18.23;;;11.70;;
77105;SDS011;66057;54.718;18.426;2023-03-01T04:10:39;27.40;;;10.60;;
77105;SDS011;66057;54.718;18.426;2023-03-01T04:13:14;27.73;;;9.73;;
77105;SDS011;66057;54.718;18.426;2023-03-01T04:15:48;19.00;;;9.88;;
77105;SDS011;66057;54.718;18.426;2023-03-01T04:18:21;25.17;;;9.93;;
77105;SDS011;66057;54.718;18.426;2023-03-01T04:20:48;21.33;;;10.68;;
77105;SDS011;66057;54.718;18.426;2023-03-01T04:23:16;27.02;;;11.27;;
77105;SDS011;66057;54.718;18.426;2023-03-01T04:25:47;29.55;;;12.65;;
77105;SDS011;66057;54.718;18.426;2023-03-01T04:28:29;28.55;;;10.32;;
77105;SDS011;66057;54.718;18.426;2023-03-01T04:30:58;22.77;;;11.10;;
77105;SDS011;66057;54.718;18.426;2023-03-01T04:33:30;23.23;;;11.48;;
77105;SDS011;66057;54.718;18.426;2023-03-01T04:35:56;22.30;;;10.15;;
77105;SDS011;66057;54.718;18.426;2023-03-01T04:38:22;20.00;;;8.52;;
77105;SDS011;66057;54.718;18.426;2023-03-01T04:40:53;9.57;;;6.07;;
77105;SDS011;66057;54.718;18.426;2023-03-01T04:43:19;32.22;;;10.50;;
77105;SDS011;66057;54.718;18.426;2023-03-01T04:45:45;16.80;;;7.60;;
77105;SDS011;66057;54.718;18.426;2023-03-01T04:48:17;30.42;;;11.70;;
77105;SDS011;66057;54.718;18.426;2023-03-01T04:50:43;25.13;;;13.75;;
77105;SDS011;66057;54.718;18.426;2023-03-01T04:53:09;28.83;;;11.43;;
77105;SDS011;66057;54.718;18.426;2023-03-01T04:55:35;25.65;;;10.77;;
77105;SDS011;66057;54.718;18.426;2023-03-01T04:58:01;35.17;;;12.15;;
77105;SDS011;66057;54.718;18.426;2023-03-01T05:00:27;30.20;;;12.90;;
77105;SDS011;66057;54.718;18.426;2023-03-01T05:02:57;26.35;;;10.25;;
77105;SDS011;66057;54.718;18.426;2023-03-01T05:05:32;43.95;;;11.63;;
77105;SDS011;66057;54.718;18.426;2023-03-01T05:08:01;25.17;;;11.05;;
77105;SDS011;66057;54.718;18.426;2023-03-01T05:10:30;25.27;;;10.65;;
77105;SDS011;66057;54.718;18.426;2023-03-01T05:12:58;23.55;;;11.75;;
77105;SDS011;66057;54.718;18.426;2023-03-01T05:15:25;32.47;;;13.38;;
77105;SDS011;66057;54.718;18.426;2023-03-01T05:17:55;30.45;;;11.10;;
77105;SDS011;66057;54.718;18.426;2023-03-01T05:20:25;26.08;;;11.95;;
77105;SDS011;66057;54.718;18.426;2023-03-01T05:22:54;48.33;;;14.02;;
77105;SDS011;66057;54.718;18.426;2023-03-01T05:25:22;37.28;;;14.27;;
77105;SDS011;66057;54.718;18.426;2023-03-01T05:27:48;35.95;;;15.55;;
77105;SDS011;66057;54.718;18.426;2023-03-01T05:30:18;40.25;;;12.77;;
77105;SDS011;66057;54.718;18.426;2023-03-01T05:32:45;30.05;;;11.85;;
77105;SDS011;66057;54.718;18.426;2023-03-01T05:35:17;22.33;;;10.63;;
77105;SDS011;66057;54.718;18.426;2023-03-01T05:37:43;28.15;;;11.52;;
77105;SDS011;66057;54.718;18.426;2023-03-01T05:40:13;28.38;;;11.15;;
77105;SDS011;66057;54.718;18.426;2023-03-01T05:42:47;27.85;;;11.07;;
77105;SDS011;66057;54.718;18.426;2023-03-01T05:45:15;28.85;;;12.18;;
77105;SDS011;66057;54.718;18.426;2023-03-01T05:47:44;24.13;;;10.52;;
77105;SDS011;66057;54.718;18.426;2023-03-01T05:50:18;23.85;;;12.13;;
77105;SDS011;66057;54.718;18.426;2023-03-01T05:52:50;39.67;;;13.85;;
77105;SDS011;66057;54.718;18.426;2023-03-01T05:55:18;37.58;;;12.32;;
77105;SDS011;66057;54.718;18.426;2023-03-01T05:57:46;33.13;;;15.27;;
77105;SDS011;66057;54.718;18.426;2023-03-01T06:02:39;28.90;;;10.65;;
77105;SDS011;66057;54.718;18.426;2023-03-01T06:05:06;23.50;;;10.95;;
77105;SDS011;66057;54.718;18.426;2023-03-01T06:07:34;31.55;;;10.25;;
77105;SDS011;66057;54.718;18.426;2023-03-01T06:10:01;19.20;;;11.43;;
77105;SDS011;66057;54.718;18.426;2023-03-01T06:12:29;30.25;;;12.13;;
77105;SDS011;66057;54.718;18.426;2023-03-01T06:15:00;27.80;;;11.60;;
77105;SDS011;66057;54.718;18.426;2023-03-01T06:17:31;21.77;;;8.55;;
77105;SDS011;66057;54.718;18.426;2023-03-01T06:20:03;23.13;;;8.80;;
77105;SDS011;66057;54.718;18.426;2023-03-01T06:22:31;32.72;;;12.00;;
77105;SDS011;66057;54.718;18.426;2023-03-01T06:25:02;28.88;;;11.90;;
77105;SDS011;66057;54.718;18.426;2023-03-01T06:27:28;31.45;;;12.95;;
77105;SDS011;66057;54.718;18.426;2023-03-01T06:29:55;25.55;;;13.43;;
77105;SDS011;66057;54.718;18.426;2023-03-01T06:32:21;38.88;;;10.70;;
77105;SDS011;66057;54.718;18.426;2023-03-01T06:34:47;27.25;;;10.93;;
77105;SDS011;66057;54.718;18.426;2023-03-01T06:37:16;36.83;;;11.10;;
77105;SDS011;66057;54.718;18.426;2023-03-01T06:39:46;32.78;;;13.40;;
77105;SDS011;66057;54.718;18.426;2023-03-01T06:42:17;21.55;;;8.90;;
77105;SDS011;66057;54.718;18.426;2023-03-01T06:44:47;23.45;;;9.93;;
77105;SDS011;66057;54.718;18.426;2023-03-01T06:47:13;17.27;;;9.48;;
77105;SDS011;66057;54.718;18.426;2023-03-01T06:49:42;34.67;;;12.73;;
77105;SDS011;66057;54.718;18.426;2023-03-01T06:52:08;31.23;;;13.70;;
77105;SDS011;66057;54.718;18.426;2023-03-01T06:54:35;37.78;;;11.23;;
77105;SDS011;66057;54.718;18.426;2023-03-01T06:57:00;36.17;;;12.85;;
77105;SDS011;66057;54.718;18.426;2023-03-01T06:59:27;26.80;;;11.20;;
77105;SDS011;66057;54.718;18.426;2023-03-01T07:01:54;24.17;;;10.25;;
77105;SDS011;66057;54.718;18.426;2023-03-01T07:04:23;29.08;;;13.10;;
77105;SDS011;66057;54.718;18.426;2023-03-01T07:06:48;20.65;;;11.48;;
77105;SDS011;66057;54.718;18.426;2023-03-01T07:09:21;29.45;;;9.98;;
77105;SDS011;66057;54.718;18.426;2023-03-01T07:11:48;22.67;;;8.90;;
77105;SDS011;66057;54.718;18.426;2023-03-01T07:14:14;29.42;;;12.55;;
77105;SDS011;66057;54.718;18.426;2023-03-01T07:16:40;22.88;;;9.30;;
77105;SDS011;66057;54.718;18.426;2023-03-01T07:19:07;17.30;;;9.60;;
77105;SDS011;66057;54.718;18.426;2023-03-01T07:21:33;18.08;;;9.15;;
77105;SDS011;66057;54.718;18.426;2023-03-01T07:24:00;20.95;;;9.32;;
77105;SDS011;66057;54.718;18.426;2023-03-01T07:26:25;31.55;;;11.68;;
77105;SDS011;66057;54.718;18.426;2023-03-01T07:28:52;19.63;;;9.35;;
77105;SDS011;66057;54.718;18.426;2023-03-01T07:31:17;22.88;;;11.07;;
77105;SDS011;66057;54.718;18.426;2023-03-01T07:33:43;24.92;;;10.82;;
77105;SDS011;66057;54.718;18.426;2023-03-01T07:36:09;20.15;;;9.82;;
77105;SDS011;66057;54.718;18.426;2023-03-01T07:38:38;33.83;;;11.85;;
77105;SDS011;66057;54.718;18.426;2023-03-01T07:41:09;35.22;;;14.57;;
77105;SDS011;66057;54.718;18.426;2023-03-01T07:43:36;30.25;;;14.25;;
77105;SDS011;66057;54.718;18.426;2023-03-01T07:46:04;28.20;;;13.27;;
77105;SDS011;66057;54.718;18.426;2023-03-01T07:48:32;22.63;;;11.70;;
77105;SDS011;66057;54.718;18.426;2023-03-01T07:51:01;19.10;;;6.75;;
77105;SDS011;66057;54.718;18.426;2023-03-01T07:53:32;20.35;;;9.82;;
77105;SDS011;66057;54.718;18.426;2023-03-01T07:58:37;20.80;;;9.02;;
77105;SDS011;66057;54.718;18.426;2023-03-01T08:01:05;13.90;;;7.43;;
77105;SDS011;66057;54.718;18.426;2023-03-01T08:03:34;15.35;;;7.15;;
77105;SDS011;66057;54.718;18.426;2023-03-01T08:06:04;18.02;;;6.82;;
77105;SDS011;66057;54.718;18.426;2023-03-01T08:08:33;13.48;;;4.80;;
77105;SDS011;66057;54.718;18.426;2023-03-01T08:11:05;21.27;;;8.50;;
77105;SDS011;66057;54.718;18.426;2023-03-01T08:13:44;14.70;;;7.20;;
77105;SDS011;66057;54.718;18.426;2023-03-01T08:16:22;9.73;;;6.70;;
77105;SDS011;66057;54.718;18.426;2023-03-01T08:19:08;9.65;;;5.65;;
77105;SDS011;66057;54.718;18.426;2023-03-01T08:21:39;10.90;;;7.18;;
77105;SDS011;66057;54.718;18.426;2023-03-01T08:24:06;10.60;;;6.75;;
77105;SDS011;66057;54.718;18.426;2023-03-01T08:26:33;13.77;;;7.45;;
77105;SDS011;66057;54.718;18.426;2023-03-01T08:29:00;14.98;;;7.10;;
77105;SDS011;66057;54.718;18.426;2023-03-01T08:31:30;17.63;;;8.70;;
77105;SDS011;66057;54.718;18.426;2023-03-01T08:34:05;9.82;;;5.30;;
77105;SDS011;66057;54.718;18.426;2023-03-01T08:36:35;12.40;;;7.05;;
77105;SDS011;66057;54.718;18.426;2023-03-01T08:39:07;16.00;;;6.00;;
77105;SDS011;66057;54.718;18.426;2023-03-01T08:41:34;18.00;;;6.25;;
77105;SDS011;66057;54.718;18.426;2023-03-01T08:44:01;14.65;;;7.15;;
77105;SDS011;66057;54.718;18.426;2023-03-01T08:46:34;15.10;;;6.43;;
77105;SDS011;66057;54.718;18.426;2023-03-01T08:49:11;13.65;;;6.47;;
77105;SDS011;66057;54.718;18.426;2023-03-01T08:51:48;15.45;;;7.53;;
77105;SDS011;66057;54.718;18.426;2023-03-01T08:54:15;12.15;;;7.47;;
77105;SDS011;66057;54.718;18.426;2023-03-01T08:56:45;12.30;;;6.00;;
77105;SDS011;66057;54.718;18.426;2023-03-01T08:59:13;12.20;;;6.40;;
77105;SDS011;66057;54.718;18.426;2023-03-01T09:01:44;9.43;;;5.50;;
77105;SDS011;66057;54.718;18.426;2023-03-01T09:04:16;13.73;;;6.57;;
77105;SDS011;66057;54.718;18.426;2023-03-01T09:06:45;8.60;;;4.15;;
77105;SDS011;66057;54.718;18.426;2023-03-01T09:09:20;18.70;;;7.15;;
77105;SDS011;66057;54.718;18.426;2023-03-01T09:11:46;8.07;;;5.32;;
77105;SDS011;66057;54.718;18.426;2023-03-01T09:14:13;17.77;;;8.23;;
77105;SDS011;66057;54.718;18.426;2023-03-01T09:16:42;13.88;;;7.57;;
77105;SDS011;66057;54.718;18.426;2023-03-01T09:19:08;11.77;;;5.22;;
77105;SDS011;66057;54.718;18.426;2023-03-01T09:21:37;8.80;;;7.15;;
77105;SDS011;66057;54.718;18.426;2023-03-01T09:24:04;12.95;;;6.10;;
77105;SDS011;66057;54.718;18.426;2023-03-01T09:26:30;12.60;;;6.47;;
77105;SDS011;66057;54.718;18.426;2023-03-01T09:28:56;12.60;;;5.57;;
77105;SDS011;66057;54.718;18.426;2023-03-01T09:31:23;8.90;;;5.80;;
77105;SDS011;66057;54.718;18.426;2023-03-01T09:33:51;13.27;;;6.05;;
77105;SDS011;66057;54.718;18.426;2023-03-01T09:36:21;9.80;;;5.90;;
77105;SDS011;66057;54.718;18.426;2023-03-01T09:38:50;11.18;;;5.97;;
77105;SDS011;66057;54.718;18.426;2023-03-01T09:43:56;15.23;;;5.60;;
77105;SDS011;66057;54.718;18.426;2023-03-01T09:46:31;8.55;;;5.47;;
77105;SDS011;66057;54.718;18.426;2023-03-01T09:49:17;9.10;;;5.28;;
77105;SDS011;66057;54.718;18.426;2023-03-01T09:51:55;11.77;;;6.50;;
77105;SDS011;66057;54.718;18.426;2023-03-01T09:54:24;11.70;;;6.30;;
77105;SDS011;66057;54.718;18.426;2023-03-01T09:56:56;5.32;;;3.45;;
77105;SDS011;66057;54.718;18.426;2023-03-01T10:02:38;10.63;;;5.47;;
77105;SDS011;66057;54.718;18.426;2023-03-01T10:05:40;8.15;;;4.68;;
77105;SDS011;66057;54.718;18.426;2023-03-01T10:10:37;9.80;;;4.28;;
77105;SDS011;66057;54.718;18.426;2023-03-01T10:16:16;17.90;;;9.32;;
77105;SDS011;66057;54.718;18.426;2023-03-01T10:18:47;13.00;;;6.90;;
77105;SDS011;66057;54.718;18.426;2023-03-01T10:21:20;14.63;;;7.00;;
77105;SDS011;66057;54.718;18.426;2023-03-01T10:23:46;12.25;;;7.10;;
77105;SDS011;66057;54.718;18.426;2023-03-01T10:31:49;11.68;;;5.25;;
77105;SDS011;66057;54.718;18.426;2023-03-01T10:36:44;11.48;;;5.68;;
77105;SDS011;66057;54.718;18.426;2023-03-01T10:39:16;11.32;;;6.28;;
77105;SDS011;66057;54.718;18.426;2023-03-01T10:44:45;12.75;;;5.30;;
77105;SDS011;66057;54.718;18.426;2023-03-01T10:47:21;9.85;;;5.28;;
77105;SDS011;66057;54.718;18.426;2023-03-01T10:49:56;12.18;;;5.82;;
77105;SDS011;66057;54.718;18.426;2023-03-01T10:55:03;10.75;;;5.38;;
77105;SDS011;66057;54.718;18.426;2023-03-01T10:57:43;11.40;;;5.75;;
77105;SDS011;66057;54.718;18.426;2023-03-01T11:00:25;16.77;;;5.65;;
77105;SDS011;66057;54.718;18.426;2023-03-01T11:05:23;13.50;;;6.35;;
77105;SDS011;66057;54.718;18.426;2023-03-01T11:07:52;9.65;;;6.30;;
77105;SDS011;66057;54.718;18.426;2023-03-01T11:10:22;15.13;;;7.68;;
77105;SDS011;66057;54.718;18.426;2023-03-01T11:12:51;9.82;;;6.60;;
77105;SDS011;66057;54.718;18.426;2023-03-01T11:15:24;12.05;;;6.50;;
77105;SDS011;66057;54.718;18.426;2023-03-01T11:17:55;14.63;;;7.75;;
77105;SDS011;66057;54.718;18.426;2023-03-01T11:20:32;10.50;;;6.55;;
77105;SDS011;66057;54.718;18.426;2023-03-01T11:23:10;11.63;;;6.32;;
77105;SDS011;66057;54.718;18.426;2023-03-01T11:25:42;15.90;;;6.63;;
77105;SDS011;66057;54.718;18.426;2023-03-01T11:38:38;10.88;;;5.68;;
77105;SDS011;66057;54.718;18.426;2023-03-01T11:41:07;8.40;;;4.43;;
77105;SDS011;66057;54.718;18.426;2023-03-01T11:47:00;8.88;;;4.20;;
77105;SDS011;66057;54.718;18.426;2023-03-01T11:58:09;8.50;;;3.92;;
77105;SDS011;66057;54.718;18.426;2023-03-01T12:09:35;9.88;;;4.47;;
77105;SDS011;66057;54.718;18.426;2023-03-01T12:20:42;3.08;;;1.63;;
77105;SDS011;66057;54.718;18.426;2023-03-01T12:26:15;4.95;;;2.40;;
77105;SDS011;66057;54.718;18.426;2023-03-01T12:35:26;4.88;;;3.13;;
77105;SDS011;66057;54.718;18.426;2023-03-01T12:38:05;12.82;;;3.30;;
77105;SDS011;66057;54.718;18.426;2023-03-01T12:41:01;6.97;;;3.13;;
77105;SDS011;66057;54.718;18.426;2023-03-01T12:43:58;4.13;;;2.30;;
77105;SDS011;66057;54.718;18.426;2023-03-01T12:49:26;4.82;;;2.95;;
77105;SDS011;66057;54.718;18.426;2023-03-01T12:52:02;4.90;;;1.70;;
77105;SDS011;66057;54.718;18.426;2023-03-01T12:54:39;5.93;;;2.53;;
77105;SDS011;66057;54.718;18.426;2023-03-01T13:00:26;6.18;;;2.05;;
77105;SDS011;66057;54.718;18.426;2023-03-01T13:05:47;8.43;;;0.50;;
77105;SDS011;66057;54.718;18.426;2023-03-01T13:11:18;2.42;;;0.70;;
77105;SDS011;66057;54.718;18.426;2023-03-01T13:13:47;1.83;;;0.50;;
77105;SDS011;66057;54.718;18.426;2023-03-01T13:18:49;0.70;;;0.52;;
77105;SDS011;66057;54.718;18.426;2023-03-01T13:21:21;0.45;;;0.25;;
77105;SDS011;66057;54.718;18.426;2023-03-01T13:23:56;1.10;;;0.43;;
77105;SDS011;66057;54.718;18.426;2023-03-01T13:26:22;3.35;;;1.60;;
77105;SDS011;66057;54.718;18.426;2023-03-01T13:28:58;2.13;;;0.82;;
77105;SDS011;66057;54.718;18.426;2023-03-01T13:33:53;2.15;;;0.43;;
77105;SDS011;66057;54.718;18.426;2023-03-01T13:39:02;2.65;;;0.77;;
77105;SDS011;66057;54.718;18.426;2023-03-01T13:44:21;1.17;;;0.60;;
77105;SDS011;66057;54.718;18.426;2023-03-01T13:49:50;0.88;;;0.80;;
77105;SDS011;66057;54.718;18.426;2023-03-01T13:52:42;2.30;;;0.90;;
77105;SDS011;66057;54.718;18.426;2023-03-01T13:55:24;0.55;;;0.30;;
77105;SDS011;66057;54.718;18.426;2023-03-01T13:58:15;1.02;;;0.40;;
77105;SDS011;66057;54.718;18.426;2023-03-01T14:01:18;5.35;;;0.88;;
77105;SDS011;66057;54.718;18.426;2023-03-01T14:03:59;1.13;;;0.50;;
77105;SDS011;66057;54.718;18.426;2023-03-01T14:06:32;1.67;;;0.47;;
77105;SDS011;66057;54.718;18.426;2023-03-01T14:17:22;0.93;;;0.80;;
77105;SDS011;66057;54.718;18.426;2023-03-01T14:20:20;2.53;;;0.73;;
77105;SDS011;66057;54.718;18.426;2023-03-01T14:22:47;1.30;;;0.73;;
77105;SDS011;66057;54.718;18.426;2023-03-01T14:25:27;2.80;;;0.60;;
77105;SDS011;66057;54.718;18.426;2023-03-01T14:30:33;2.65;;;1.15;;
77105;SDS011;66057;54.718;18.426;2023-03-01T14:33:05;0.82;;;0.32;;
77105;SDS011;66057;54.718;18.426;2023-03-01T14:35:51;1.20;;;0.80;;
77105;SDS011;66057;54.718;18.426;2023-03-01T14:38:22;1.77;;;1.05;;
77105;SDS011;66057;54.718;18.426;2023-03-01T14:40:57;1.38;;;0.90;;
77105;SDS011;66057;54.718;18.426;2023-03-01T14:43:27;0.75;;;0.65;;
77105;SDS011;66057;54.718;18.426;2023-03-01T14:45:57;1.80;;;0.75;;
77105;SDS011;66057;54.718;18.426;2023-03-01T14:48:24;1.58;;;0.77;;
77105;SDS011;66057;54.718;18.426;2023-03-01T14:50:53;1.40;;;1.17;;
77105;SDS011;66057;54.718;18.426;2023-03-01T14:53:24;1.88;;;1.23;;
77105;SDS011;66057;54.718;18.426;2023-03-01T14:55:52;3.42;;;0.93;;
77105;SDS011;66057;54.718;18.426;2023-03-01T14:58:31;0.80;;;0.80;;
77105;SDS011;66057;54.718;18.426;2023-03-01T15:00:59;6.13;;;1.20;;
77105;SDS011;66057;54.718;18.426;2023-03-01T15:03:40;1.52;;;1.08;;
77105;SDS011;66057;54.718;18.426;2023-03-01T15:06:09;0.45;;;0.45;;
77105;SDS011;66057;54.718;18.426;2023-03-01T15:08:42;1.25;;;0.57;;
77105;SDS011;66057;54.718;18.426;2023-03-01T15:11:34;0.57;;;0.57;;
77105;SDS011;66057;54.718;18.426;2023-03-01T15:14:05;0.98;;;0.80;;
77105;SDS011;66057;54.718;18.426;2023-03-01T15:16:54;1.38;;;1.05;;
77105;SDS011;66057;54.718;18.426;2023-03-01T15:19:21;1.73;;;1.35;;
77105;SDS011;66057;54.718;18.426;2023-03-01T15:21:52;0.55;;;0.55;;
77105;SDS011;66057;54.718;18.426;2023-03-01T15:24:20;1.80;;;1.20;;
77105;SDS011;66057;54.718;18.426;2023-03-01T15:29:32;0.95;;;0.80;;
77105;SDS011;66057;54.718;18.426;2023-03-01T15:32:20;0.80;;;0.80;;
77105;SDS011;66057;54.718;18.426;2023-03-01T15:34:49;1.77;;;0.93;;
77105;SDS011;66057;54.718;18.426;2023-03-01T15:40:25;7.07;;;2.75;;
77105;SDS011;66057;54.718;18.426;2023-03-01T15:43:01;1.13;;;0.93;;
77105;SDS011;66057;54.718;18.426;2023-03-01T15:45:29;0.80;;;0.80;;
77105;SDS011;66057;54.718;18.426;2023-03-01T15:48:03;3.92;;;1.05;;
77105;SDS011;66057;54.718;18.426;2023-03-01T15:50:35;1.65;;;1.08;;
77105;SDS011;66057;54.718;18.426;2023-03-01T15:53:10;1.52;;;1.42;;
77105;SDS011;66057;54.718;18.426;2023-03-01T15:55:40;0.80;;;0.63;;
77105;SDS011;66057;54.718;18.426;2023-03-01T15:58:17;2.78;;;1.25;;
77105;SDS011;66057;54.718;18.426;2023-03-01T16:00:50;3.75;;;1.00;;
77105;SDS011;66057;54.718;18.426;2023-03-01T16:03:21;3.75;;;1.75;;
77105;SDS011;66057;54.718;18.426;2023-03-01T16:05:51;1.95;;;1.73;;
77105;SDS011;66057;54.718;18.426;2023-03-01T16:08:17;2.00;;;0.52;;
77105;SDS011;66057;54.718;18.426;2023-03-01T16:10:47;4.20;;;1.70;;
77105;SDS011;66057;54.718;18.426;2023-03-01T16:13:16;0.52;;;0.52;;
77105;SDS011;66057;54.718;18.426;2023-03-01T16:15:43;0.43;;;0.35;;
77105;SDS011;66057;54.718;18.426;2023-03-01T16:18:09;1.83;;;1.73;;
77105;SDS011;66057;54.718;18.426;2023-03-01T16:20:37;2.17;;;1.30;;
77105;SDS011;66057;54.718;18.426;2023-03-01T16:23:07;2.20;;;1.27;;
77105;SDS011;66057;54.718;18.426;2023-03-01T16:25:38;1.73;;;1.08;;
77105;SDS011;66057;54.718;18.426;2023-03-01T16:28:05;0.70;;;0.70;;
77105;SDS011;66057;54.718;18.426;2023-03-01T16:30:37;4.10;;;1.65;;
77105;SDS011;66057;54.718;18.426;2023-03-01T16:33:04;1.00;;;0.98;;
77105;SDS011;66057;54.718;18.426;2023-03-01T16:35:33;1.17;;;1.10;;
77105;SDS011;66057;54.718;18.426;2023-03-01T16:38:04;1.55;;;0.98;;
77105;SDS011;66057;54.718;18.426;2023-03-01T16:40:39;1.60;;;1.25;;
77105;SDS011;66057;54.718;18.426;2023-03-01T16:43:18;1.50;;;1.40;;
77105;SDS011;66057;54.718;18.426;2023-03-01T16:45:45;4.50;;;1.13;;
77105;SDS011;66057;54.718;18.426;2023-03-01T16:48:12;7.10;;;1.13;;
77105;SDS011;66057;54.718;18.426;2023-03-01T16:50:39;2.35;;;0.85;;
77105;SDS011;66057;54.718;18.426;2023-03-01T16:53:11;1.70;;;0.50;;
77105;SDS011;66057;54.718;18.426;2023-03-01T16:55:38;2.00;;;0.77;;
77105;SDS011;66057;54.718;18.426;2023-03-01T16:58:14;3.45;;;0.98;;
77105;SDS011;66057;54.718;18.426;2023-03-01T17:00:43;0.70;;;0.50;;
77105;SDS011;66057;54.718;18.426;2023-03-01T17:03:09;0.95;;;0.40;;
77105;SDS011;66057;54.718;18.426;2023-03-01T17:05:51;5.50;;;0.68;;